Time;durP1;ratioP1;P1;durP2;ratioP2;P2;SDS_P1;SDS_P2;PMS_P1;PMS_P2;Temp;Humidity;BMP_temperature;BMP_pressure;BME280_temperature;BME280_humidity;BME280_pressure;Samples;Min_cycle;Max_cycle;Signal;HPM_P1;HPM_P2
2021/06/16 00:01:58;;;;;;;8.50;5.40;;;410.30;2355.20;;;;;;5074346;28;20116;-69
2021/06/16 00:04:24;;;;;;;6.85;5.35;;;410.20;2355.20;;;;;;5074210;28;20039;-69
2021/06/16 00:06:51;;;;;;;8.20;5.53;;;410.20;2355.20;;;;;;5074103;28;20036;-69
2021/06/16 00:09:16;;;;;;;6.97;5.10;;;410.20;2355.20;;;;;;5074082;28;20132;-69
2021/06/16 00:11:42;;;;;;;10.23;5.57;;;410.20;2355.20;;;;;;5073995;28;20115;-70
2021/06/16 00:14:09;;;;;;;7.28;5.55;;;410.10;2355.20;;;;;;5074637;28;20029;-70
2021/06/16 00:16:34;;;;;;;6.82;5.35;;;410.00;2355.20;;;;;;5073962;28;20382;-69
2021/06/16 00:19:01;;;;;;;6.43;5.55;;;410.00;2355.20;;;;;;5074148;28;20025;-69
2021/06/16 00:21:27;;;;;;;8.23;5.70;;;410.00;2355.20;;;;;;5073965;28;20028;-69
2021/06/16 00:23:52;;;;;;;7.88;6.07;;;410.00;2355.20;;;;;;5073779;28;20017;-69
2021/06/16 00:26:18;;;;;;;9.40;6.80;;;409.90;2355.20;;;;;;5074181;28;20025;-69
2021/06/16 00:28:44;;;;;;;10.30;7.43;;;409.70;2355.20;;;;;;5072074;28;20544;-69
2021/06/16 00:31:11;;;;;;;9.38;6.65;;;409.70;2355.20;;;;;;5073950;28;20063;-69
2021/06/16 00:33:36;;;;;;;9.13;6.72;;;409.60;2355.20;;;;;;5073583;28;20031;-68
2021/06/16 00:36:03;;;;;;;8.32;6.68;;;409.60;2355.20;;;;;;5073442;28;20111;-69
2021/06/16 00:38:28;;;;;;;11.52;9.35;;;384.80;2329.60;;;;;;5073447;28;20033;-69
2021/06/16 00:40:56;;;;;;;9.20;6.80;;;384.70;2329.60;;;;;;5073381;28;20056;-69
2021/06/16 00:43:22;;;;;;;8.20;6.28;;;384.70;2329.60;;;;;;5073793;28;20166;-69
2021/06/16 00:45:48;;;;;;;9.10;6.57;;;384.80;2329.60;;;;;;5073295;28;20509;-69
2021/06/16 00:48:13;;;;;;;8.52;6.50;;;384.80;2329.60;;;;;;5073691;28;20180;-69
2021/06/16 00:50:40;;;;;;;10.48;7.20;;;384.90;2329.60;;;;;;5073127;28;20021;-69
2021/06/16 00:53:07;;;;;;;9.35;6.93;;;384.90;2329.60;;;;;;5073529;28;20410;-69
2021/06/16 00:55:38;;;;;;;8.80;6.78;;;384.90;2329.60;;;;;;5073151;28;20028;-69
2021/06/16 00:58:07;;;;;;;8.85;7.00;;;384.80;2329.60;;;;;;5073261;28;20447;-70
2021/06/16 01:00:51;;;;;;;7.97;6.55;;;384.80;2329.60;;;;;;5073005;28;20033;-72
2021/06/16 01:03:17;;;;;;;10.15;6.90;;;384.80;2329.60;;;;;;5072976;28;20031;-73
2021/06/16 01:06:16;;;;;;;8.93;6.78;;;384.70;2329.60;;;;;;5073218;28;20033;-76
2021/06/16 01:09:02;;;;;;;10.85;7.10;;;384.70;2329.60;;;;;;5067482;28;20040;-68
2021/06/16 01:11:31;;;;;;;11.50;7.18;;;384.70;2329.60;;;;;;5059069;28;20501;-69
2021/06/16 01:14:10;;;;;;;8.52;7.20;;;384.60;2329.60;;;;;;5072890;28;20029;-69
2021/06/16 01:16:41;;;;;;;10.35;7.57;;;384.60;2329.60;;;;;;5059285;28;20016;-70
2021/06/16 01:19:29;;;;;;;10.52;7.90;;;384.60;2329.60;;;;;;5071064;28;20027;-69
2021/06/16 01:22:00;;;;;;;9.15;7.05;;;384.60;2329.60;;;;;;5060946;28;20111;-68
2021/06/16 01:24:30;;;;;;;9.25;7.43;;;384.60;2329.60;;;;;;5072568;28;20491;-69
2021/06/16 01:26:56;;;;;;;10.60;7.40;;;384.60;2329.60;;;;;;5072786;28;20561;-68
2021/06/16 01:29:29;;;;;;;10.70;7.57;;;384.60;2329.60;;;;;;5072568;28;20075;-70
2021/06/16 01:31:57;;;;;;;12.35;8.25;;;384.50;2329.60;;;;;;5059288;28;20033;-69
2021/06/16 01:34:24;;;;;;;10.82;7.35;;;384.40;2329.60;;;;;;5072718;28;20024;-72
2021/06/16 01:36:53;;;;;;;9.68;7.70;;;384.40;2329.60;;;;;;5072340;28;20027;-70
2021/06/16 01:39:22;;;;;;;10.68;7.97;;;384.40;2329.60;;;;;;5072479;28;20437;-68
2021/06/16 01:41:51;;;;;;;9.80;7.55;;;384.40;2329.60;;;;;;5072687;28;20117;-69
2021/06/16 01:44:18;;;;;;;10.77;7.50;;;384.40;2329.60;;;;;;5072529;28;20123;-69
2021/06/16 01:46:45;;;;;;;11.30;7.55;;;384.40;2329.60;;;;;;5072421;28;20458;-69
2021/06/16 01:49:12;;;;;;;10.45;7.80;;;384.50;2329.60;;;;;;5072468;28;20091;-73
2021/06/16 01:51:41;;;;;;;9.07;7.40;;;384.50;2329.60;;;;;;5072449;28;20016;-72
2021/06/16 01:54:08;;;;;;;9.88;7.43;;;384.50;2329.60;;;;;;5058559;28;20543;-68
2021/06/16 01:56:36;;;;;;;9.85;7.50;;;384.50;2329.60;;;;;;5072452;28;20062;-68
2021/06/16 01:59:05;;;;;;;10.77;8.30;;;384.40;2329.60;;;;;;5072142;28;20498;-69
2021/06/16 02:01:31;;;;;;;10.27;7.85;;;384.40;2329.60;;;;;;5072440;28;20028;-70
2021/06/16 02:03:57;;;;;;;11.63;8.07;;;384.40;2329.60;;;;;;5072519;28;20505;-70
2021/06/16 02:06:27;;;;;;;9.95;7.88;;;384.40;2329.60;;;;;;5072578;28;20107;-70
2021/06/16 02:08:53;;;;;;;12.03;7.60;;;384.30;2329.60;;;;;;5054268;28;20482;-70
2021/06/16 02:11:23;;;;;;;10.43;7.50;;;384.30;2329.60;;;;;;5072268;28;20039;-69
2021/06/16 02:13:56;;;;;;;11.20;7.72;;;384.20;2329.60;;;;;;5072302;28;20028;-69
2021/06/16 02:16:42;;;;;;;10.45;7.57;;;384.10;2329.60;;;;;;5072370;28;20040;-69
2021/06/16 02:19:14;;;;;;;10.25;7.10;;;384.00;2329.60;;;;;;5072072;28;20031;-70
2021/06/16 02:21:41;;;;;;;11.73;7.82;;;384.00;2329.60;;;;;;5072290;28;20546;-69
2021/06/16 02:24:08;;;;;;;9.55;7.47;;;384.00;2329.60;;;;;;5072151;28;20107;-70
2021/06/16 02:26:34;;;;;;;11.00;8.00;;;384.00;2329.60;;;;;;5072154;28;20024;-69
2021/06/16 02:28:59;;;;;;;15.70;8.65;;;384.00;2329.60;;;;;;5072425;28;20031;-69
2021/06/16 02:31:25;;;;;;;18.80;9.80;;;384.00;2329.60;;;;;;5072205;28;20021;-69
2021/06/16 02:33:52;;;;;;;15.38;9.65;;;384.00;2329.60;;;;;;5075972;28;20493;-69
2021/06/16 02:36:21;;;;;;;11.40;8.63;;;384.10;2329.60;;;;;;5075812;28;20378;-70
2021/06/16 02:38:57;;;;;;;11.07;6.82;;;384.10;2329.60;;;;;;5076322;28;20025;-68
2021/06/16 02:41:23;;;;;;;8.95;6.97;;;384.20;2329.60;;;;;;5075730;28;20044;-70
2021/06/16 02:43:51;;;;;;;9.43;6.82;;;384.20;2329.60;;;;;;5075705;28;20078;-69
2021/06/16 02:46:18;;;;;;;11.00;7.00;;;384.10;2329.60;;;;;;5076050;28;20083;-69
2021/06/16 02:48:48;;;;;;;9.60;6.80;;;384.10;2329.60;;;;;;5075864;28;20020;-69
2021/06/16 02:51:14;;;;;;;8.48;6.57;;;384.00;2329.60;;;;;;5075542;28;20524;-69
2021/06/16 02:53:42;;;;;;;10.23;7.38;;;384.00;2329.60;;;;;;5075474;28;20036;-69
2021/06/16 02:56:08;;;;;;;9.75;7.00;;;359.30;2329.60;;;;;;5075618;28;20021;-69
2021/06/16 02:58:37;;;;;;;10.73;7.07;;;359.30;2329.60;;;;;;5075608;28;20021;-69
2021/06/16 03:01:05;;;;;;;9.43;6.68;;;359.20;2329.60;;;;;;5075538;28;20099;-69
2021/06/16 03:03:32;;;;;;;9.57;6.97;;;359.30;2329.60;;;;;;5075450;28;20439;-68
2021/06/16 03:06:00;;;;;;;9.05;6.95;;;359.20;2329.60;;;;;;5075251;28;20134;-70
2021/06/16 03:08:27;;;;;;;9.63;6.63;;;359.20;2329.60;;;;;;5075300;28;20056;-70
2021/06/16 03:10:54;;;;;;;10.10;6.72;;;359.20;2329.60;;;;;;5075394;28;20356;-70
2021/06/16 03:13:23;;;;;;;10.40;7.03;;;359.20;2329.60;;;;;;5075356;28;20356;-70
2021/06/16 03:15:49;;;;;;;9.82;6.57;;;359.20;2329.60;;;;;;5074990;28;20026;-69
2021/06/16 03:18:16;;;;;;;10.60;6.78;;;359.30;2329.60;;;;;;5075218;28;20054;-69
2021/06/16 03:20:42;;;;;;;10.05;7.38;;;359.30;2329.60;;;;;;5075046;28;20538;-69
2021/06/16 03:23:10;;;;;;;9.43;6.97;;;384.00;2329.60;;;;;;5075171;28;20052;-69
2021/06/16 03:25:38;;;;;;;9.45;6.93;;;384.00;2329.60;;;;;;5075063;28;20032;-69
2021/06/16 03:28:04;;;;;;;10.18;6.40;;;384.10;2329.60;;;;;;5057139;28;20074;-70
2021/06/16 03:30:31;;;;;;;11.20;6.85;;;384.10;2329.60;;;;;;5074966;28;20032;-69
2021/06/16 03:32:58;;;;;;;9.63;6.97;;;384.20;2329.60;;;;;;5074990;28;20100;-69
2021/06/16 03:35:25;;;;;;;8.20;6.40;;;384.10;2329.60;;;;;;5074943;28;20049;-69
2021/06/16 03:37:52;;;;;;;7.50;6.38;;;384.10;2329.60;;;;;;5074825;28;20012;-69
2021/06/16 03:40:20;;;;;;;9.75;6.65;;;384.10;2329.60;;;;;;5074392;28;20406;-70
2021/06/16 03:42:48;;;;;;;10.80;7.22;;;384.10;2329.60;;;;;;5074264;28;20025;-70
2021/06/16 03:45:14;;;;;;;10.00;6.38;;;384.10;2329.60;;;;;;5074817;28;20111;-69
2021/06/16 03:47:44;;;;;;;9.40;6.20;;;384.10;2329.60;;;;;;5074631;28;20031;-69
2021/06/16 03:50:14;;;;;;;11.02;6.55;;;384.10;2329.60;;;;;;5074538;28;20035;-70
2021/06/16 03:52:42;;;;;;;8.90;6.30;;;384.20;2329.60;;;;;;5074430;28;20025;-70
2021/06/16 03:55:10;;;;;;;9.55;6.22;;;384.20;2329.60;;;;;;5074350;28;20032;-69
2021/06/16 03:57:38;;;;;;;8.18;5.63;;;384.30;2329.60;;;;;;5074453;28;20021;-70
2021/06/16 04:00:07;;;;;;;9.35;6.25;;;384.30;2329.60;;;;;;5074660;28;20363;-70
2021/06/16 04:02:33;;;;;;;7.65;6.00;;;384.40;2329.60;;;;;;5074160;28;20024;-70
2021/06/16 04:05:04;;;;;;;7.85;6.07;;;384.60;2329.60;;;;;;5074301;28;20032;-70
2021/06/16 04:07:32;;;;;;;8.40;6.15;;;384.70;2329.60;;;;;;5074377;28;20024;-70
2021/06/16 04:09:58;;;;;;;8.60;5.68;;;384.90;2329.60;;;;;;5074287;28;20391;-68
2021/06/16 04:12:24;;;;;;;9.30;5.97;;;409.60;2355.20;;;;;;5073976;28;20032;-68
2021/06/16 04:14:51;;;;;;;9.18;5.95;;;409.80;2355.20;;;;;;5056187;28;20773;-71
2021/06/16 04:17:21;;;;;;;9.38;6.40;;;409.90;2355.20;;;;;;5073920;28;20024;-70
2021/06/16 04:19:48;;;;;;;9.73;6.28;;;409.90;2355.20;;;;;;5074155;28;20089;-72
2021/06/16 04:22:14;;;;;;;8.95;6.50;;;410.00;2355.20;;;;;;5073998;28;20090;-71
2021/06/16 04:24:40;;;;;;;9.27;6.57;;;410.30;2355.20;;;;;;5055937;28;20029;-70
2021/06/16 04:27:07;;;;;;;11.20;6.82;;;410.50;2355.20;;;;;;5073868;28;20017;-70
2021/06/16 04:29:33;;;;;;;11.07;7.90;;;435.20;2355.20;;;;;;5073949;28;20020;-71
2021/06/16 04:31:59;;;;;;;17.25;12.63;;;435.30;2355.20;;;;;;5073927;28;20047;-70
2021/06/16 04:34:24;;;;;;;21.17;14.43;;;435.40;2355.20;;;;;;5073622;28;20360;-70
2021/06/16 04:36:50;;;;;;;25.90;14.50;;;435.50;2355.20;;;;;;5073568;28;20023;-69
2021/06/16 04:39:18;;;;;;;24.63;12.35;;;435.50;2355.20;;;;;;5073639;28;20506;-70
2021/06/16 04:41:44;;;;;;;24.85;12.60;;;435.30;2355.20;;;;;;5073400;28;20479;-70
2021/06/16 04:44:10;;;;;;;23.63;12.52;;;435.30;2355.20;;;;;;5073525;28;20475;-69
2021/06/16 04:46:35;;;;;;;20.52;12.43;;;435.30;2355.20;;;;;;5073223;28;20029;-70
2021/06/16 04:49:01;;;;;;;23.60;11.60;;;435.30;2355.20;;;;;;5073466;28;20016;-70
2021/06/16 04:51:27;;;;;;;19.77;11.88;;;435.40;2355.20;;;;;;5073420;28;20025;-70
2021/06/16 04:53:53;;;;;;;16.33;11.50;;;435.50;2355.20;;;;;;5072651;28;20092;-70
2021/06/16 04:56:19;;;;;;;20.27;11.68;;;435.70;2355.20;;;;;;5072986;28;20037;-70
2021/06/16 04:58:45;;;;;;;21.17;14.35;;;435.80;2355.20;;;;;;5073074;28;20060;-71
2021/06/16 05:01:11;;;;;;;19.50;13.07;;;436.00;2355.20;;;;;;5073672;28;20031;-70
2021/06/16 05:03:37;;;;;;;24.67;15.38;;;460.80;2380.80;;;;;;5073006;28;20024;-70
2021/06/16 05:06:04;;;;;;;16.05;11.68;;;461.10;2380.80;;;;;;5072989;28;20119;-71
2021/06/16 05:08:29;;;;;;;15.55;11.18;;;461.40;2380.80;;;;;;5072987;28;20037;-70
2021/06/16 05:10:55;;;;;;;16.58;11.00;;;461.70;2380.80;;;;;;5072839;28;20208;-71
2021/06/16 05:13:25;;;;;;;19.05;12.05;;;486.60;2380.80;;;;;;5073495;28;20073;-70
2021/06/16 05:15:52;;;;;;;19.20;11.80;;;486.90;2380.80;;;;;;5073024;28;20394;-71
2021/06/16 05:18:18;;;;;;;20.88;12.43;;;487.10;2380.80;;;;;;5072857;28;20024;-70
2021/06/16 05:20:44;;;;;;;15.10;8.80;;;512.10;2380.80;;;;;;5073015;28;20115;-70
2021/06/16 05:23:11;;;;;;;11.07;6.60;;;512.30;2380.80;;;;;;5072798;28;20021;-70
2021/06/16 05:25:36;;;;;;;8.45;5.70;;;512.60;2380.80;;;;;;5072859;28;20035;-70
2021/06/16 05:28:02;;;;;;;7.88;5.10;;;512.90;2380.80;;;;;;5072616;28;20390;-70
2021/06/16 05:30:28;;;;;;;8.13;5.05;;;537.60;2406.40;;;;;;5072891;28;20501;-70
2021/06/16 05:32:54;;;;;;;8.82;5.32;;;537.70;2406.40;;;;;;5072696;28;20024;-69
2021/06/16 05:35:20;;;;;;;8.68;5.32;;;537.80;2406.40;;;;;;5054713;28;20056;-70
2021/06/16 05:37:47;;;;;;;6.50;5.10;;;538.00;2406.40;;;;;;5072552;28;20074;-70
2021/06/16 05:40:14;;;;;;;7.85;5.35;;;538.00;2406.40;;;;;;5072386;28;20040;-70
2021/06/16 05:42:40;;;;;;;7.07;5.22;;;538.00;2406.40;;;;;;5072827;28;20214;-70
2021/06/16 05:45:07;;;;;;;9.05;5.68;;;538.00;2406.40;;;;;;5072468;28;20485;-70
2021/06/16 05:47:32;;;;;;;8.95;5.35;;;538.20;2406.40;;;;;;5072454;28;20020;-71
2021/06/16 05:49:58;;;;;;;7.72;5.15;;;538.50;2406.40;;;;;;5072393;28;20109;-71
2021/06/16 05:52:24;;;;;;;9.15;5.20;;;538.50;2406.40;;;;;;5058477;28;20061;-70
2021/06/16 05:54:50;;;;;;;8.07;4.95;;;563.30;2432.00;;;;;;5072413;28;20386;-70
2021/06/16 05:57:16;;;;;;;9.00;5.35;;;563.60;2432.00;;;;;;5072148;28;20024;-70
2021/06/16 05:59:41;;;;;;;7.75;5.22;;;563.70;2432.00;;;;;;5072423;28;20103;-71
2021/06/16 06:02:08;;;;;;;6.85;4.72;;;563.90;2432.00;;;;;;5072266;28;20031;-70
2021/06/16 06:04:34;;;;;;;8.02;5.00;;;564.00;2432.00;;;;;;5072449;28;20386;-71
2021/06/16 06:07:02;;;;;;;7.53;4.65;;;588.80;2432.00;;;;;;5075615;28;20025;-71
2021/06/16 06:09:28;;;;;;;8.20;5.03;;;588.90;2432.00;;;;;;5076414;28;20486;-70
2021/06/16 06:11:54;;;;;;;8.60;4.70;;;589.10;2432.00;;;;;;5076465;28;20035;-71
2021/06/16 06:14:20;;;;;;;7.07;4.80;;;589.20;2432.00;;;;;;5076308;28;20377;-70
2021/06/16 06:16:46;;;;;;;8.82;5.00;;;589.50;2432.00;;;;;;5076639;28;20025;-70
2021/06/16 06:19:11;;;;;;;8.63;4.63;;;589.50;2432.00;;;;;;5076163;28;20029;-70
2021/06/16 06:21:37;;;;;;;5.75;4.38;;;589.60;2432.00;;;;;;5076526;28;20028;-71
2021/06/16 06:24:04;;;;;;;6.13;4.53;;;589.70;2432.00;;;;;;5076088;28;20021;-70
2021/06/16 06:26:30;;;;;;;7.50;4.50;;;589.70;2432.00;;;;;;5076452;28;20425;-70
2021/06/16 06:28:56;;;;;;;6.63;4.40;;;614.40;2432.00;;;;;;5076109;28;20052;-72
2021/06/16 06:31:22;;;;;;;6.88;4.50;;;614.60;2432.00;;;;;;5075456;28;20082;-70
2021/06/16 06:33:47;;;;;;;6.80;4.47;;;614.60;2432.00;;;;;;5075900;28;20020;-71
2021/06/16 06:36:13;;;;;;;6.38;4.18;;;614.70;2432.00;;;;;;5075760;28;20025;-72
2021/06/16 06:38:39;;;;;;;6.35;4.30;;;614.80;2432.00;;;;;;5075765;28;20036;-70
2021/06/16 06:41:05;;;;;;;8.20;4.13;;;614.70;2432.00;;;;;;5075701;28;20053;-70
2021/06/16 06:43:30;;;;;;;6.40;4.70;;;614.80;2432.00;;;;;;5075854;28;20047;-70
2021/06/16 06:45:56;;;;;;;6.55;4.43;;;614.90;2432.00;;;;;;5075172;28;20497;-70
2021/06/16 06:48:22;;;;;;;5.38;3.95;;;614.80;2432.00;;;;;;5075051;28;20046;-69
2021/06/16 06:50:48;;;;;;;7.82;4.20;;;614.90;2432.00;;;;;;5075293;28;20028;-69
2021/06/16 06:53:14;;;;;;;6.60;4.30;;;615.00;2432.00;;;;;;5074881;28;20021;-69
2021/06/16 06:55:42;;;;;;;6.80;4.35;;;615.20;2432.00;;;;;;5074627;28;20024;-69
2021/06/16 06:58:08;;;;;;;6.78;4.00;;;615.30;2432.00;;;;;;5074840;28;20024;-69
2021/06/16 07:00:35;;;;;;;7.57;4.32;;;640.00;2432.00;;;;;;5074493;28;20483;-69
2021/06/16 07:03:00;;;;;;;6.90;4.32;;;640.20;2432.00;;;;;;5072015;28;20032;-70
2021/06/16 07:05:26;;;;;;;6.93;4.38;;;640.60;2432.00;;;;;;5074481;28;20027;-74
2021/06/16 07:07:52;;;;;;;8.10;4.38;;;640.70;2432.00;;;;;;5074817;28;20077;-70
2021/06/16 07:10:18;;;;;;;6.65;4.10;;;640.90;2432.00;;;;;;5075202;28;20024;-69
2021/06/16 07:12:44;;;;;;;6.10;4.15;;;665.60;2432.00;;;;;;5074654;28;20501;-70
2021/06/16 07:15:11;;;;;;;6.70;4.32;;;665.70;2432.00;;;;;;5075203;28;20386;-70
2021/06/16 07:17:37;;;;;;;6.57;4.13;;;665.90;2432.00;;;;;;5071689;28;20082;-71
2021/06/16 07:20:05;;;;;;;5.40;4.07;;;666.20;2432.00;;;;;;5075168;28;20024;-69
2021/06/16 07:22:31;;;;;;;7.03;4.00;;;666.20;2432.00;;;;;;5075373;28;20017;-70
2021/06/16 07:24:56;;;;;;;6.15;3.90;;;666.50;2432.00;;;;;;5072607;28;20032;-71
2021/06/16 07:27:22;;;;;;;6.28;4.00;;;691.20;2432.00;;;;;;5072158;28;20020;-70
2021/06/16 07:29:48;;;;;;;6.25;4.18;;;691.20;2432.00;;;;;;5074430;28;20039;-70
2021/06/16 07:32:16;;;;;;;7.80;4.18;;;691.40;2432.00;;;;;;5072338;28;20093;-70
2021/06/16 07:34:42;;;;;;;6.85;4.10;;;691.50;2432.00;;;;;;5074596;28;20031;-70
2021/06/16 07:37:07;;;;;;;6.07;4.25;;;691.60;2432.00;;;;;;5074301;28;20091;-70
2021/06/16 07:39:33;;;;;;;8.40;4.50;;;691.70;2432.00;;;;;;5074561;28;20043;-68
2021/06/16 07:41:59;;;;;;;5.57;4.18;;;691.70;2432.00;;;;;;5072679;28;20035;-71
2021/06/16 07:44:25;;;;;;;6.07;4.10;;;691.90;2432.00;;;;;;5074407;28;20061;-67
2021/06/16 07:46:51;;;;;;;8.20;4.40;;;691.90;2432.00;;;;;;5074699;28;20051;-69
2021/06/16 07:49:18;;;;;;;6.35;4.13;;;691.80;2432.00;;;;;;5071905;28;20017;-70
2021/06/16 07:51:44;;;;;;;6.97;4.40;;;691.80;2432.00;;;;;;5061838;28;20495;-68
2021/06/16 07:54:12;;;;;;;7.93;4.60;;;691.70;2432.00;;;;;;5070948;28;20020;-69
2021/06/16 07:56:42;;;;;;;6.10;4.45;;;691.70;2432.00;;;;;;5073036;28;20439;-68
2021/06/16 07:59:08;;;;;;;7.45;4.45;;;691.70;2432.00;;;;;;5073422;28;20484;-71
2021/06/16 08:01:36;;;;;;;8.05;4.45;;;691.80;2432.00;;;;;;5074142;28;20039;-72
2021/06/16 08:04:01;;;;;;;6.72;4.55;;;692.00;2432.00;;;;;;5074695;28;20094;-68
2021/06/16 08:06:27;;;;;;;6.40;4.53;;;692.10;2432.00;;;;;;5074435;28;20024;-69
2021/06/16 08:08:53;;;;;;;6.50;4.35;;;716.90;2432.00;;;;;;5074608;28;20098;-67
2021/06/16 08:11:21;;;;;;;6.05;4.00;;;717.10;2432.00;;;;;;5074674;28;20107;-68
2021/06/16 08:13:47;;;;;;;8.13;5.40;;;717.20;2432.00;;;;;;5074596;28;20026;-68
2021/06/16 08:16:14;;;;;;;6.43;4.35;;;717.20;2432.00;;;;;;5074459;28;20382;-67
2021/06/16 08:18:40;;;;;;;6.05;3.88;;;717.50;2432.00;;;;;;5071458;28;20019;-68
2021/06/16 08:21:06;;;;;;;5.50;3.90;;;717.70;2432.00;;;;;;5073928;28;20535;-69
2021/06/16 08:23:32;;;;;;;6.63;4.00;;;742.40;2432.00;;;;;;5074193;28;20036;-67
2021/06/16 08:25:57;;;;;;;6.32;4.10;;;717.70;2432.00;;;;;;5073884;28;20414;-68
2021/06/16 08:28:23;;;;;;;5.75;3.80;;;717.70;2432.00;;;;;;5073734;28;20024;-68
2021/06/16 08:30:49;;;;;;;7.90;4.00;;;717.70;2432.00;;;;;;5073968;28;20029;-68
2021/06/16 08:33:15;;;;;;;5.45;3.60;;;742.40;2432.00;;;;;;5074501;28;20398;-69
2021/06/16 08:35:40;;;;;;;5.20;4.00;;;742.40;2432.00;;;;;;5072322;28;20024;-70
2021/06/16 08:38:06;;;;;;;4.93;3.80;;;717.60;2432.00;;;;;;5063965;28;20040;-68
2021/06/16 08:40:32;;;;;;;6.95;4.00;;;717.50;2432.00;;;;;;5056515;28;20525;-68
2021/06/16 08:42:58;;;;;;;7.43;3.80;;;717.60;2432.00;;;;;;5055154;28;20056;-68
2021/06/16 08:45:26;;;;;;;5.70;3.70;;;717.70;2406.40;;;;;;5064156;28;20108;-68
2021/06/16 08:47:52;;;;;;;5.60;3.65;;;742.40;2432.00;;;;;;5073402;28;20021;-67
2021/06/16 08:50:18;;;;;;;5.07;3.50;;;717.70;2406.40;;;;;;5073626;28;20414;-68
2021/06/16 08:52:45;;;;;;;5.15;3.50;;;717.70;2380.80;;;;;;5070551;28;20033;-69
2021/06/16 08:55:14;;;;;;;5.43;3.80;;;742.40;2432.00;;;;;;5072954;28;20044;-69
2021/06/16 08:57:40;;;;;;;8.35;3.80;;;717.70;2406.40;;;;;;5072611;28;20487;-69
2021/06/16 09:00:08;;;;;;;4.90;3.47;;;742.40;2432.00;;;;;;5073038;28;20032;-69
2021/06/16 09:02:35;;;;;;;6.63;3.65;;;742.40;2432.00;;;;;;5072902;28;20043;-69
2021/06/16 09:05:00;;;;;;;5.80;3.63;;;717.70;2406.40;;;;;;5073286;28;20116;-69
2021/06/16 09:07:30;;;;;;;5.18;3.50;;;742.50;2432.00;;;;;;5072447;28;20566;-70
2021/06/16 09:10:12;;;;;;;6.28;3.60;;;742.50;2406.40;;;;;;5054751;28;20459;-70
2021/06/16 09:12:44;;;;;;;5.80;3.42;;;742.50;2432.00;;;;;;5072432;28;20500;-69
2021/06/16 09:15:19;;;;;;;7.82;3.50;;;742.50;2380.80;;;;;;5073025;28;20441;-70
2021/06/16 09:18:01;;;;;;;6.68;3.60;;;742.50;2380.80;;;;;;5072855;28;20427;-69
2021/06/16 09:20:28;;;;;;;6.68;3.47;;;717.70;2380.80;;;;;;5073002;28;20020;-69
2021/06/16 09:23:11;;;;;;;5.47;3.25;;;742.40;2406.40;;;;;;5072438;28;20048;-69
2021/06/16 09:25:37;;;;;;;4.47;3.25;;;742.50;2355.20;;;;;;5072696;28;20111;-69
2021/06/16 09:28:03;;;;;;;5.03;3.50;;;742.60;2380.80;;;;;;5072444;28;20103;-69
2021/06/16 09:30:49;;;;;;;4.72;3.22;;;742.60;2380.80;;;;;;5072470;28;20032;-67
2021/06/16 09:33:16;;;;;;;4.88;3.20;;;742.60;2355.20;;;;;;5069738;28;20036;-68
2021/06/16 09:35:48;;;;;;;4.47;3.40;;;742.80;2329.60;;;;;;5072800;28;20078;-68
2021/06/16 09:38:25;;;;;;;8.15;3.50;;;742.90;2329.60;;;;;;5072282;28;20032;-67
2021/06/16 09:40:51;;;;;;;6.25;3.40;;;742.80;2329.60;;;;;;5071932;28;20135;-68
2021/06/16 09:43:20;;;;;;;5.93;3.30;;;742.80;2304.00;;;;;;5072605;28;20081;-68
2021/06/16 09:45:52;;;;;;;3.85;2.97;;;742.70;2304.00;;;;;;5072542;28;20024;-68
2021/06/16 09:48:28;;;;;;;3.83;3.08;;;742.80;2304.00;;;;;;5072531;28;20027;-68
2021/06/16 09:51:10;;;;;;;4.18;3.00;;;742.80;2304.00;;;;;;5072425;28;20028;-69
2021/06/16 09:54:13;;;;;;;7.97;3.10;;;742.90;2304.00;;;;;;5072552;28;20032;-68
2021/06/16 09:56:52;;;;;;;4.53;2.97;;;743.00;2304.00;;;;;;5072359;28;20023;-67
2021/06/16 09:59:42;;;;;;;5.00;3.22;;;743.10;2278.40;;;;;;5059544;28;20025;-68
2021/06/16 10:02:23;;;;;;;3.90;2.92;;;743.10;2278.40;;;;;;5072065;28;20028;-67
2021/06/16 10:05:01;;;;;;;4.78;3.00;;;743.30;2278.40;;;;;;5072687;28;20033;-67
2021/06/16 10:07:27;;;;;;;5.10;3.00;;;743.30;2227.20;;;;;;5072385;28;20085;-68
2021/06/16 10:09:58;;;;;;;5.28;3.10;;;768.10;2227.20;;;;;;5072217;28;20029;-69
2021/06/16 10:12:26;;;;;;;5.07;3.15;;;743.30;2227.20;;;;;;5072166;28;20104;-68
2021/06/16 10:14:53;;;;;;;4.32;3.10;;;768.00;2201.60;;;;;;5072037;28;20025;-70
2021/06/16 10:17:19;;;;;;;3.80;2.70;;;743.30;2227.20;;;;;;5072080;28;20502;-71
2021/06/16 10:19:46;;;;;;;5.53;3.10;;;743.30;2227.20;;;;;;5072148;28;20037;-68
2021/06/16 10:22:12;;;;;;;3.58;2.85;;;768.10;2227.20;;;;;;5072378;28;20024;-67
2021/06/16 10:24:39;;;;;;;4.90;3.08;;;768.30;2201.60;;;;;;5071907;28;20124;-68
2021/06/16 10:27:08;;;;;;;6.05;3.00;;;768.40;2201.60;;;;;;5070904;28;20098;-69
2021/06/16 10:29:41;;;;;;;4.20;2.90;;;768.60;2176.00;;;;;;5072143;28;20446;-68
2021/06/16 10:32:08;;;;;;;4.28;2.85;;;768.40;2150.40;;;;;;5071970;28;20024;-68
2021/06/16 10:34:52;;;;;;;4.38;2.88;;;768.10;2150.40;;;;;;5071884;28;20056;-67
2021/06/16 10:37:36;;;;;;;5.95;2.65;;;768.10;2150.40;;;;;;5071870;28;20423;-68
2021/06/16 10:40:21;;;;;;;5.60;2.53;;;743.20;2099.20;;;;;;5071487;28;20122;-68
2021/06/16 10:43:14;;;;;;;4.35;2.55;;;768.00;2099.20;;;;;;5071928;28;20040;-68
2021/06/16 10:45:41;;;;;;;3.83;2.45;;;;;;;;;;5036259;28;20411;-69
2021/06/16 10:48:09;;;;;;;4.47;2.70;;;768.40;2124.80;;;;;;5072221;28;20024;-68
2021/06/16 10:50:47;;;;;;;3.22;2.50;;;768.30;2073.60;;;;;;5071679;28;20112;-68
2021/06/16 10:53:15;;;;;;;4.10;2.50;;;768.40;2073.60;;;;;;5073762;28;20020;-68
2021/06/16 10:55:53;;;;;;;3.63;2.50;;;768.50;2048.00;;;;;;5075447;28;20060;-68
2021/06/16 10:58:38;;;;;;;4.00;2.70;;;768.30;2048.00;;;;;;5075655;28;20035;-69
2021/06/16 11:01:12;;;;;;;5.03;2.50;;;768.10;2048.00;;;;;;5062844;28;20120;-67
2021/06/16 11:03:48;;;;;;;3.90;2.58;;;768.20;2048.00;;;;;;5074537;28;20036;-67
2021/06/16 11:06:32;;;;;;;3.88;2.45;;;768.30;2073.60;;;;;;5074022;28;20074;-69
2021/06/16 11:09:12;;;;;;;4.32;2.58;;;768.20;2073.60;;;;;;5075128;28;20123;-69
2021/06/16 11:11:50;;;;;;;5.63;2.60;;;768.50;2048.00;;;;;;5074847;28;20471;-69
2021/06/16 11:14:37;;;;;;;4.82;2.60;;;768.70;2073.60;;;;;;5075232;28;20032;-69
2021/06/16 11:17:07;;;;;;;4.63;2.50;;;768.60;2022.40;;;;;;5074887;28;20020;-69
2021/06/16 11:19:35;;;;;;;;;;;768.60;2048.00;;;;;;5074930;28;20032;-70
2021/06/16 11:22:13;;;;;;;4.47;2.65;;;768.70;2048.00;;;;;;5074540;28;19910;-71
2021/06/16 11:25:03;;;;;;;5.25;2.47;;;768.60;2048.00;;;;;;5074503;28;20384;-70
2021/06/16 11:27:51;;;;;;;6.00;2.30;;;768.70;1996.80;;;;;;5074922;28;20082;-74
2021/06/16 11:30:42;;;;;;;5.18;2.30;;;768.70;1996.80;;;;;;5073518;28;20035;-69
2021/06/16 11:35:50;;;;;;;4.45;2.30;;;768.90;1996.80;;;;;;5075070;28;19904;-71
2021/06/16 11:38:19;;;;;;;5.18;2.63;;;768.70;1971.20;;;;;;5074624;28;20493;-71
2021/06/16 11:40:58;;;;;;;4.45;2.40;;;768.50;1996.80;;;;;;5074728;28;20143;-70
2021/06/16 11:43:37;;;;;;;6.90;2.25;;;768.50;1996.80;;;;;;5074637;28;20029;-68
2021/06/16 11:46:10;;;;;;;6.00;2.35;;;768.70;1971.20;;;;;;5074824;28;20127;-80
2021/06/16 11:48:36;;;;;;;3.72;2.50;;;793.60;1971.20;;;;;;5074247;28;20024;-69
2021/06/16 11:51:02;;;;;;;4.57;2.65;;;793.70;2048.00;;;;;;5060488;28;20048;-68
2021/06/16 11:53:33;;;;;;;4.50;2.65;;;793.70;1996.80;;;;;;5056122;28;20476;-69
2021/06/16 11:56:08;;;;;;;4.90;2.63;;;793.80;1971.20;;;;;;5057156;28;20028;-70
2021/06/16 11:58:35;;;;;;;4.45;2.45;;;793.80;1996.80;;;;;;5060585;28;20388;-70
2021/06/16 12:01:16;;;;;;;4.50;2.40;;;794.00;1945.60;;;;;;5072248;28;20056;-71
2021/06/16 12:03:44;;;;;;;4.60;2.35;;;794.00;1945.60;;;;;;5065028;28;20043;-70
2021/06/16 12:06:16;;;;;;;4.25;2.33;;;794.10;1945.60;;;;;;5069982;28;20070;-71
2021/06/16 12:08:44;;;;;;;4.55;2.30;;;794.00;1920.00;;;;;;5071682;28;20390;-73
2021/06/16 12:11:27;;;;;;;4.95;2.78;;;794.10;1920.00;;;;;;5073270;28;20032;-71
2021/06/16 12:13:58;;;;;;;5.22;2.35;;;794.00;1920.00;;;;;;5063234;28;20384;-72
2021/06/16 12:16:29;;;;;;;4.65;2.40;;;794.10;1894.40;;;;;;5066692;28;20021;-79
2021/06/16 12:19:15;;;;;;;3.58;2.38;;;794.20;1894.40;;;;;;5089789;22;20059;-72
2021/06/16 12:21:53;;;;;;;4.18;2.15;;;794.50;1868.80;;;;;;5073647;28;20433;-71
2021/06/16 12:24:31;;;;;;;3.85;2.35;;;794.50;1843.20;;;;;;5073880;28;20456;-71
2021/06/16 12:27:09;;;;;;;4.15;2.20;;;794.40;1817.60;;;;;;5073796;28;20020;-70
2021/06/16 12:29:42;;;;;;;5.72;2.50;;;819.20;1843.20;;;;;;5073150;28;20103;-74